Terminal Aerodrome Forecast
Issued by NWS Memphis, TN

Home | Current Version | Previous Version | Text Only | Print | Product List | Glossary On
Versions: 1 2 3 4 5 6 7 8 9 10 11 12 13 14 15 16 17 18
869
FTUS44 KMEG 201738
TAFMKL
TAF
KMKL 201738Z 2018/2118 17008KT P6SM BKN250
     FM210800 15006KT P6SM VCSH BKN060 BKN150
     FM211200 14006KT 4SM -SHRA BKN015 OVC025
     FM211500 17009KT 4SM -RA BR OVC007=

USA.gov is the U.S. government's official web portal to all federal, state and local government web resources and services.